ルレオ の空港の天気 - METARとTAF

Lulea / Kallax ( ESPA / LLA ) - スウェーデン ルレオ
飛行場実況気象(Metar)
観測時間05/29 00:20 CEST (05/28 22:20 UTC)
風向・風速北北西 1m/s
視程10km以上
天気現象
なし
気温4℃
湿度93%
気圧1004hPa
METARESPA 282220Z AUTO 33001KT 9999 NCD 04/03 Q1004
過去の天気等 Google飛行場航空写真 Wunderground天気予報

過去48時間のMETAR

飛行場予報(TAF)
発表時間: 5/28 16:30 CEST (5/28 14:30 UTC)
予報対象時間: 28日17時 CEST ~ 28日21時 CEST
風向・風速南南東 4m/s
視程10km以上
全天の8割程度の雲 雲底高度 1370m
28日17時 CEST から 確率 40% で
全天の4割程度の塔状積雲 雲底高度 1070m
TAF ESPA 281430Z 2815/2819 15007KT 9999 BKN045
PROB40 2815/2818 SCT035TCU